Ascutney, VT (05030)

8:54 PM EST on February 28, 2015 (GMT -0500)
Ascutney Farm Stand | Change Station
CLOSE
Current Station
Personal Weather Station
Location: Windsor, VT
Elevation: 427 ft
Nearby Weather Stations

Elev 427 ft 43.41 °N, 72.41 °W | Updated 32 seconds ago

Clear
Clear
9.0 °F
Feels Like 9 °F
N
1.7
Wind Variable Wind from West

Today
High -- | Low -- °F
--% Chance of Precip.
Yesterday
High -- | Low -- °F
Precip. -- in
6:28 AM 5:36 PM
Waxing Gibbous, 81% visible
Pressure 30.72 in
Visibility 10.0 miles
Clouds Clear
Windchill 9 °F
Dew Point 3 °F
Humidity 75%
Rainfall 0.00 in
Snow Depth Not available.
UV 0 out of 12
Pollen .30 out of 12
Air Quality Not available.
Flu Activity Not available.
METAR KVSF 010054Z AUTO 00000KT 10SM CLR M11/M17 A3067 RMK AO2 SLP402 T11061172 TSNO $

More Conditions Fewer Conditions

Pressure 30.72 in
Visibility 10.0 miles
Clouds Clear
Windchill 9 °F
Dew Point 3 °F
Humidity 75%
Rainfall 0.00 in
Snow Depth Not available.
UV 0 out of 12
Pollen .30 out of 12
Air Quality Not available.
Flu Activity Not available.
METAR KVSF 010054Z AUTO 00000KT 10SM CLR M11/M17 A3067 RMK AO2 SLP402 T11061172 TSNO $

More Conditions Fewer Conditions

10-Day Weather Forecast

Almanac

Astronomy

Feb. 28, 2015 Rise Set
Actual Time
Civil Twilight
Nautical Twilight
Astronomical Twilight
Moon
Length of Visible Light
Length of Day
Tomorrow will be .
, % of the Moon is Illuminated

Today's Extremes

State Highs State Lows

Community

WunderPhotos

Upload Photos

1,801,237 photos uploaded!

WunderBlogs® & News

Nearby

Air Quality

  Air Quality AQ Index Pollutant
Not available.

Snow Depth

Station Depth Elevation

Earthquake Activity

City Distance Mag. Time & Date
Minimum magnitude displayed is 2.5.

Coastal Water Temperatures

Place Temperature

Nearby Weather Stations